Lady Nur — 3FFE2 — position and weather

sailwx.info

Track history (hours):
 
Tides and Currents Weather Stations Pressure Air Temp Water Temp Dewpoint Dewpoint Depression Visibility Wind Speed Wind Dir Waves Ship Positions

Lady Nur

Last reported at 2017-Feb-25 10:32 UTC. Time now 2017-Feb-26 16:43 UTC.
Position N 38°16' E 012°54'.

Length 82 m; draft 5.4 m.

Type: Cargo ship. MMSI: 373237000.

Date/timePositionNaut miles runAvg speedWind from/ knotsBaromVisibWave heightAir tempDewpointWater temp
2017-Feb-25 10:32N 38°16' E 012°54'8 8.1
2017-Feb-25 09:33N 38°17' E 013°04'8 7.8
2017-Feb-25 08:33N 38°17' E 013°14'8 7.6
2017-Feb-25 07:33N 38°17' E 013°24'8 7.8
2017-Feb-25 06:33N 38°17' E 013°34'7 7.4
2017-Feb-25 05:33N 38°17' E 013°43'8 7.5
2017-Feb-25 04:29N 38°17' E 013°54'41 8.2
2017-Feb-24 23:31N 38°17' E 014°45'9 8.7
2017-Feb-24 22:30N 38°17' E 014°57'8 8.7
2017-Feb-24 21:33N 38°17' E 015°07'7 7.4
2017-Feb-24 20:33N 38°15' E 015°16'2 2.0
2017-Feb-24 19:29N 38°13' E 015°15'0 0.0
2017-Feb-24 18:29N 38°13' E 015°15'0 0.0
2017-Feb-24 17:29N 38°13' E 015°15'0 0.0
2017-Feb-24 16:29N 38°13' E 015°15'0 0.0
2017-Feb-24 15:29N 38°13' E 015°15'0 0.0
2017-Feb-24 14:29N 38°13' E 015°15'0 0.0
2017-Feb-24 13:29N 38°13' E 015°15'0 0.0
2017-Feb-24 12:29N 38°13' E 015°15'0 0.0
2017-Feb-24 11:29N 38°13' E 015°15'0 0.0
2017-Feb-24 10:29N 38°13' E 015°15'0 0.0
2017-Feb-24 09:29N 38°13' E 015°15'0 0.0
2017-Feb-24 08:29N 38°13' E 015°15'0 0.0
2017-Feb-24 07:29N 38°13' E 015°15'0 0.0
2017-Feb-24 06:32N 38°13' E 015°15'0 0.0
2017-Feb-24 05:29N 38°13' E 015°15'0 0.0
2017-Feb-24 04:29N 38°13' E 015°15'0 0.0
2017-Feb-24 03:29N 38°13' E 015°15'0 0.0
2017-Feb-24 02:29N 38°13' E 015°15'0 0.0
2017-Feb-24 01:29N 38°13' E 015°15'0 0.0
2017-Feb-24 00:29N 38°13' E 015°15'0 0.0
2017-Feb-23 23:29N 38°13' E 015°15'0 0.0
2017-Feb-23 22:29N 38°13' E 015°15'0 0.0
2017-Feb-23 21:29N 38°13' E 015°15'0 0.0
2017-Feb-23 20:29N 38°13' E 015°15'0 0.0
2017-Feb-23 19:29N 38°13' E 015°15'0 0.0
2017-Feb-23 18:29N 38°13' E 015°15'0 0.0
2017-Feb-23 17:29N 38°13' E 015°15'0 0.0
2017-Feb-23 16:29N 38°13' E 015°15'0 0.0
2017-Feb-23 15:29N 38°13' E 015°15'0 0.0
2017-Feb-23 14:29N 38°13' E 015°15'0 0.0
2017-Feb-23 13:23N 38°13' E 015°15'0 0.0
2017-Feb-23 12:29N 38°13' E 015°15'0 0.0
2017-Feb-23 11:29N 38°13' E 015°15'0 0.0
2017-Feb-23 10:33N 38°13' E 015°15'3 2.5
2017-Feb-23 09:31N 38°14' E 015°18'9 9.7
2017-Feb-23 08:33N 38°19' E 015°28'9 9.0
2017-Feb-23 07:33N 38°18' E 015°39'5 4.7
2017-Feb-23 06:33N 38°14' E 015°38'8 8.4
2017-Feb-23 05:33N 38°05' E 015°36'8 8.2
2017-Feb-23 04:33N 37°57' E 015°34'9 8.6
2017-Feb-23 03:33N 37°49' E 015°32'9 9.0
2017-Feb-23 02:33N 37°40' E 015°31'  
Track history (hours):
 
Tides and Currents Weather Stations Pressure Air Temp Water Temp Dewpoint Dewpoint Depression Visibility Wind Speed Wind Dir Waves Ship Positions

Lady Nur

Last reported at 2017-Feb-25 10:32 UTC. Time now 2017-Feb-26 16:43 UTC.
Position N 38°16' E 012°54'.

Length 82 m; draft 5.4 m.

Type: Cargo ship. MMSI: 373237000.

Date/timePositionNaut miles runAvg speedWind from/ knotsBaromVisibWave heightAir tempDewpointWater temp
2017-Feb-25 10:32N 38°16' E 012°54'8 8.1
2017-Feb-25 09:33N 38°17' E 013°04'8 7.8
2017-Feb-25 08:33N 38°17' E 013°14'8 7.6
2017-Feb-25 07:33N 38°17' E 013°24'8 7.8
2017-Feb-25 06:33N 38°17' E 013°34'7 7.4
2017-Feb-25 05:33N 38°17' E 013°43'8 7.5
2017-Feb-25 04:29N 38°17' E 013°54'41 8.2
2017-Feb-24 23:31N 38°17' E 014°45'9 8.7
2017-Feb-24 22:30N 38°17' E 014°57'8 8.7
2017-Feb-24 21:33N 38°17' E 015°07'7 7.4
2017-Feb-24 20:33N 38°15' E 015°16'2 2.0
2017-Feb-24 19:29N 38°13' E 015°15'0 0.0
2017-Feb-24 18:29N 38°13' E 015°15'0 0.0
2017-Feb-24 17:29N 38°13' E 015°15'0 0.0
2017-Feb-24 16:29N 38°13' E 015°15'0 0.0
2017-Feb-24 15:29N 38°13' E 015°15'0 0.0
2017-Feb-24 14:29N 38°13' E 015°15'0 0.0
2017-Feb-24 13:29N 38°13' E 015°15'0 0.0
2017-Feb-24 12:29N 38°13' E 015°15'0 0.0
2017-Feb-24 11:29N 38°13' E 015°15'0 0.0
2017-Feb-24 10:29N 38°13' E 015°15'0 0.0
2017-Feb-24 09:29N 38°13' E 015°15'0 0.0
2017-Feb-24 08:29N 38°13' E 015°15'0 0.0
2017-Feb-24 07:29N 38°13' E 015°15'0 0.0
2017-Feb-24 06:32N 38°13' E 015°15'0 0.0
2017-Feb-24 05:29N 38°13' E 015°15'0 0.0
2017-Feb-24 04:29N 38°13' E 015°15'0 0.0
2017-Feb-24 03:29N 38°13' E 015°15'0 0.0
2017-Feb-24 02:29N 38°13' E 015°15'0 0.0
2017-Feb-24 01:29N 38°13' E 015°15'0 0.0
2017-Feb-24 00:29N 38°13' E 015°15'0 0.0
2017-Feb-23 23:29N 38°13' E 015°15'0 0.0
2017-Feb-23 22:29N 38°13' E 015°15'0 0.0
2017-Feb-23 21:29N 38°13' E 015°15'0 0.0
2017-Feb-23 20:29N 38°13' E 015°15'0 0.0
2017-Feb-23 19:29N 38°13' E 015°15'0 0.0
2017-Feb-23 18:29N 38°13' E 015°15'0 0.0
2017-Feb-23 17:29N 38°13' E 015°15'0 0.0
2017-Feb-23 16:29N 38°13' E 015°15'0 0.0
2017-Feb-23 15:29N 38°13' E 015°15'0 0.0
2017-Feb-23 14:29N 38°13' E 015°15'0 0.0
2017-Feb-23 13:23N 38°13' E 015°15'0 0.0
2017-Feb-23 12:29N 38°13' E 015°15'0 0.0
2017-Feb-23 11:29N 38°13' E 015°15'0 0.0
2017-Feb-23 10:33N 38°13' E 015°15'3 2.5
2017-Feb-23 09:31N 38°14' E 015°18'9 9.7
2017-Feb-23 08:33N 38°19' E 015°28'9 9.0
2017-Feb-23 07:33N 38°18' E 015°39'5 4.7
2017-Feb-23 06:33N 38°14' E 015°38'8 8.4
2017-Feb-23 05:33N 38°05' E 015°36'8 8.2
2017-Feb-23 04:33N 37°57' E 015°34'9 8.6
2017-Feb-23 03:33N 37°49' E 015°32'9 9.0
2017-Feb-23 02:33N 37°40' E 015°31'  

Dump ship's entire track history